createdAt,value
2022-10-30T00:01:58.861Z,998.35
2022-10-30T00:07:02.875Z,998.67
2022-10-30T00:12:06.979Z,998.36
2022-10-30T00:17:11.165Z,998.69
2022-10-30T00:22:15.358Z,998.52
2022-10-30T00:27:19.518Z,998.16
2022-10-30T00:32:21.790Z,998.08
2022-10-30T00:37:25.921Z,997.65
2022-10-30T00:42:30.046Z,997.68
2022-10-30T00:47:34.243Z,997.56
2022-10-30T00:52:38.413Z,997.72
2022-10-30T00:57:42.536Z,997.65
2022-10-30T01:02:46.813Z,997.48
2022-10-30T01:07:50.865Z,997.18
2022-10-30T01:12:55.050Z,996.71
2022-10-30T01:17:59.589Z,996.49
2022-10-30T01:23:03.340Z,996.34
2022-10-30T01:28:07.530Z,995.96
2022-10-30T01:33:11.671Z,995.29
2022-10-30T01:38:15.823Z,994.85
2022-10-30T01:43:20.011Z,994.71
2022-10-30T01:48:24.151Z,994.48
2022-10-30T01:53:28.868Z,994.35
2022-10-30T01:58:32.479Z,994.08
2022-10-30T02:03:36.615Z,994.01
2022-10-30T02:08:40.796Z,993.83
2022-10-30T02:13:44.979Z,993.81
2022-10-30T02:18:49.113Z,994.08
2022-10-30T02:23:53.482Z,994.42
2022-10-30T02:28:57.415Z,994.02
2022-10-30T02:34:01.607Z,994.21
2022-10-30T02:39:05.734Z,994.22
2022-10-30T02:44:09.909Z,994.11
2022-10-30T02:49:14.064Z,994.54
2022-10-30T02:54:18.259Z,995.06
2022-10-30T02:59:22.398Z,995.16
2022-10-30T03:04:26.571Z,995.31
2022-10-30T03:09:30.713Z,995.26
2022-10-30T03:14:34.858Z,994.50
2022-10-30T03:19:39.000Z,994.08
2022-10-30T03:24:43.185Z,993.50
2022-10-30T03:29:47.373Z,993.08
2022-10-30T03:34:51.522Z,993.19
2022-10-30T03:39:55.686Z,992.90
2022-10-30T03:44:59.804Z,992.32
2022-10-30T03:50:04.036Z,991.82
2022-10-30T03:55:08.154Z,991.87
2022-10-30T04:00:12.296Z,991.68
2022-10-30T04:05:16.469Z,991.73
2022-10-30T04:10:23.754Z,991.53
2022-10-30T04:15:24.775Z,991.06
2022-10-30T04:20:28.949Z,990.41
2022-10-30T04:25:33.132Z,990.10
2022-10-30T04:30:37.308Z,989.94
2022-10-30T04:35:41.478Z,989.68
2022-10-30T04:40:45.579Z,989.51
2022-10-30T04:45:49.750Z,989.41
2022-10-30T04:50:53.936Z,989.19
2022-10-30T04:55:58.103Z,989.07
2022-10-30T05:01:03.388Z,989.07
2022-10-30T05:06:06.402Z,989.26
2022-10-30T05:11:10.589Z,988.75
2022-10-30T05:16:14.700Z,988.79
2022-10-30T05:21:18.877Z,988.54
2022-10-30T05:26:23.107Z,988.63
2022-10-30T05:31:27.213Z,988.05
2022-10-30T05:36:31.348Z,987.97
2022-10-30T05:41:35.541Z,987.91
2022-10-30T05:46:39.697Z,987.93
2022-10-30T05:51:43.846Z,987.99
2022-10-30T05:56:47.994Z,988.01
2022-10-30T06:01:50.286Z,988.22
2022-10-30T06:06:54.463Z,988.08
2022-10-30T06:11:58.607Z,987.87
2022-10-30T06:22:06.931Z,987.52
2022-10-30T06:27:11.092Z,987.32
2022-10-30T06:32:13.335Z,987.35
2022-10-30T06:37:17.602Z,987.49
2022-10-30T06:42:21.664Z,987.56
2022-10-30T06:47:25.801Z,987.52
2022-10-30T06:52:29.978Z,987.57
2022-10-30T06:57:34.168Z,987.44
2022-10-30T07:02:38.306Z,987.54
2022-10-30T07:07:42.455Z,987.45
2022-10-30T07:12:46.647Z,987.37
2022-10-30T07:17:50.805Z,987.38
2022-10-30T07:22:54.967Z,987.19
2022-10-30T07:27:59.304Z,987.05
2022-10-30T07:33:03.406Z,986.98
2022-10-30T07:38:07.470Z,987.15
2022-10-30T07:43:11.604Z,987.09
2022-10-30T07:48:15.751Z,987.18
2022-10-30T07:53:19.899Z,987.23
2022-10-30T07:58:24.090Z,987.18
2022-10-30T08:03:28.257Z,987.23
2022-10-30T08:08:32.372Z,987.25
2022-10-30T08:13:36.531Z,987.23
2022-10-30T08:18:40.763Z,987.14
2022-10-30T08:23:44.891Z,987.19
2022-10-30T08:28:49.042Z,987.21
2022-10-30T08:33:53.232Z,987.36
2022-10-30T08:38:57.477Z,987.49
2022-10-30T08:44:01.515Z,987.42
2022-10-30T08:49:05.680Z,987.59
2022-10-30T08:54:09.821Z,987.73
2022-10-30T08:59:17.195Z,988.19
2022-10-30T09:04:18.189Z,989.12
2022-10-30T09:09:22.328Z,990.13
2022-10-30T09:14:26.492Z,990.76
2022-10-30T09:24:34.825Z,991.78
2022-10-30T09:29:38.976Z,992.25
2022-10-30T09:34:43.147Z,992.42
2022-10-30T09:39:47.299Z,992.68
2022-10-30T09:45:02.128Z,992.30
2022-10-30T09:49:55.576Z,991.97
2022-10-30T09:54:59.757Z,992.13
2022-10-30T10:00:03.947Z,992.47
2022-10-30T10:05:08.115Z,992.93
2022-10-30T10:10:12.322Z,993.30
2022-10-30T10:15:16.403Z,993.49
2022-10-30T10:20:20.585Z,993.23
2022-10-30T10:25:24.801Z,993.61
2022-10-30T10:30:28.870Z,993.78
2022-10-30T10:35:33.054Z,994.34
2022-10-30T10:40:37.221Z,994.28
2022-10-30T10:45:41.387Z,994.89
2022-10-30T10:50:45.522Z,998.00
2022-10-30T10:55:49.670Z,998.24
2022-10-30T11:00:53.841Z,998.54
2022-10-30T11:05:58.000Z,998.64
2022-10-30T11:11:02.148Z,998.75
2022-10-30T11:16:06.329Z,998.59
2022-10-30T11:21:10.473Z,998.79
2022-10-30T11:26:14.649Z,999.22
2022-10-30T11:31:18.762Z,999.25
2022-10-30T11:36:22.941Z,999.83
2022-10-30T11:41:27.321Z,1000.16
2022-10-30T11:46:31.262Z,1000.41
2022-10-30T11:51:35.548Z,1002.43
2022-10-30T11:56:39.595Z,1003.21
2022-10-30T12:01:41.917Z,1003.57
2022-10-30T12:06:46.066Z,1003.72
2022-10-30T12:11:50.156Z,1004.01
2022-10-30T12:16:54.326Z,1004.00
2022-10-30T12:21:58.503Z,1004.30
2022-10-30T12:27:02.641Z,1004.59
2022-10-30T12:32:06.829Z,1004.71
2022-10-30T12:37:10.962Z,1004.83
2022-10-30T12:42:15.092Z,1004.65
2022-10-30T12:47:19.282Z,1004.83
2022-10-30T12:52:23.450Z,1004.77
2022-10-30T12:57:27.614Z,1004.57
2022-10-30T13:02:31.808Z,1004.88
2022-10-30T13:07:35.916Z,1004.99
2022-10-30T13:12:40.076Z,1004.83
2022-10-30T13:17:44.247Z,1005.09
2022-10-30T13:22:48.393Z,1005.35
2022-10-30T13:27:52.544Z,1005.35
2022-10-30T13:38:01.193Z,1005.22
2022-10-30T13:43:05.057Z,1005.18
2022-10-30T13:48:09.204Z,1005.04
2022-10-30T13:53:13.345Z,1004.90
2022-10-30T13:58:17.510Z,1004.97
2022-10-30T14:03:21.686Z,1005.08
2022-10-30T14:08:25.876Z,1005.22
2022-10-30T14:13:30.015Z,1005.14
2022-10-30T14:18:34.263Z,1005.16
2022-10-30T14:23:38.293Z,1005.15
2022-10-30T14:28:42.479Z,1005.02
2022-10-30T14:33:46.653Z,1004.92
2022-10-30T14:38:50.776Z,1004.55
2022-10-30T14:43:54.927Z,1004.63
2022-10-30T14:48:59.086Z,1004.05
2022-10-30T14:54:03.280Z,1003.47
2022-10-30T14:59:07.393Z,1003.18
2022-10-30T15:04:11.553Z,1002.87
2022-10-30T15:09:15.757Z,1002.77
2022-10-30T15:14:21.534Z,1002.54
2022-10-30T15:19:24.026Z,1001.23
2022-10-30T15:24:32.157Z,999.82
2022-10-30T15:29:32.399Z,999.36
2022-10-30T15:34:36.547Z,999.41
2022-10-30T15:39:40.668Z,999.30
2022-10-30T15:44:44.836Z,999.51
2022-10-30T15:49:49.028Z,999.12
2022-10-30T15:54:53.189Z,999.11
2022-10-30T15:59:57.306Z,999.70
2022-10-30T16:05:01.476Z,1000.05
2022-10-30T16:10:05.649Z,999.87
2022-10-30T16:15:09.825Z,1000.23
2022-10-30T16:20:13.939Z,1000.75
2022-10-30T16:25:18.096Z,1000.71
2022-10-30T16:30:22.269Z,1000.42
2022-10-30T16:35:26.467Z,999.99
2022-10-30T16:40:30.575Z,999.21
2022-10-30T16:45:34.743Z,998.54
2022-10-30T16:50:38.916Z,998.27
2022-10-30T16:55:43.084Z,998.09
2022-10-30T17:00:47.292Z,998.02
2022-10-30T17:05:51.374Z,998.02
2022-10-30T17:10:55.564Z,997.87
2022-10-30T17:15:59.724Z,997.78
2022-10-30T17:21:03.901Z,997.87
2022-10-30T17:26:08.061Z,997.93
2022-10-30T17:31:10.329Z,998.09
2022-10-30T17:36:14.504Z,998.19
2022-10-30T17:41:18.617Z,998.31
2022-10-30T17:46:22.758Z,998.51
2022-10-30T17:51:26.920Z,998.47
2022-10-30T17:56:31.086Z,998.35
2022-10-30T18:01:35.370Z,998.15
2022-10-30T18:06:39.429Z,997.96
2022-10-30T18:11:43.590Z,998.41
2022-10-30T18:16:52.868Z,998.67
2022-10-30T18:21:51.928Z,998.69
2022-10-30T18:26:56.022Z,999.27
2022-10-30T18:32:03.227Z,999.48
2022-10-30T18:37:04.409Z,999.41
2022-10-30T18:42:08.514Z,999.27
2022-10-30T18:47:12.704Z,999.41
2022-10-30T18:52:16.834Z,999.61
2022-10-30T18:57:21.015Z,999.99
2022-10-30T19:02:25.255Z,1000.50
2022-10-30T19:07:29.326Z,1000.45
2022-10-30T19:12:38.426Z,1000.44
2022-10-30T19:17:37.625Z,1000.10
2022-10-30T19:22:41.789Z,1000.33
2022-10-30T19:27:45.961Z,1000.49
2022-10-30T19:32:50.141Z,1000.19
2022-10-30T19:37:54.305Z,1000.23
2022-10-30T19:42:58.894Z,999.91
2022-10-30T19:48:02.611Z,999.83
2022-10-30T19:53:06.976Z,999.72
2022-10-30T19:58:10.940Z,999.36
2022-10-30T20:03:15.086Z,999.19
2022-10-30T20:08:19.267Z,999.14
2022-10-30T20:13:23.420Z,999.22
2022-10-30T20:18:27.540Z,999.27
2022-10-30T20:23:31.730Z,999.20
2022-10-30T20:28:35.871Z,998.59
2022-10-30T20:33:40.042Z,998.45
2022-10-30T20:38:44.207Z,997.99
2022-10-30T20:43:48.381Z,997.78
2022-10-30T20:48:52.518Z,997.69
2022-10-30T20:53:56.716Z,997.29
2022-10-30T20:59:00.829Z,997.16
2022-10-30T21:04:05.038Z,997.12
2022-10-30T21:09:09.198Z,997.02
2022-10-30T21:14:13.378Z,996.65
2022-10-30T21:19:17.543Z,996.15
2022-10-30T21:24:21.642Z,996.29
2022-10-30T21:29:25.980Z,996.42
2022-10-30T21:34:30.010Z,996.45
2022-10-30T21:39:34.100Z,996.38
2022-10-30T21:44:38.271Z,996.07
2022-10-30T21:49:42.460Z,995.75
2022-10-30T21:54:46.613Z,995.66
2022-10-30T21:59:50.797Z,995.20
2022-10-30T22:04:56.934Z,995.22
2022-10-30T22:09:59.079Z,995.11
2022-10-30T22:15:03.257Z,994.95
2022-10-30T22:20:07.385Z,995.07
2022-10-30T22:25:11.576Z,994.92
2022-10-30T22:30:15.743Z,994.83
2022-10-30T22:35:19.935Z,994.63
2022-10-30T22:40:24.089Z,994.59
2022-10-30T22:45:28.227Z,994.60
2022-10-30T22:50:32.392Z,994.69
2022-10-30T22:55:36.533Z,994.64
2022-10-30T23:00:38.775Z,994.69
2022-10-30T23:05:42.988Z,994.73
2022-10-30T23:10:47.132Z,994.62
2022-10-30T23:15:51.326Z,994.41
2022-10-30T23:20:55.427Z,994.23
2022-10-30T23:25:59.617Z,994.10
2022-10-30T23:31:01.882Z,994.11
2022-10-30T23:36:06.050Z,994.14
2022-10-30T23:41:10.195Z,994.09
2022-10-30T23:46:14.357Z,994.06
2022-10-30T23:51:18.541Z,994.12
2022-10-30T23:56:22.700Z,994.09
